Time;durP1;ratioP1;P1;durP2;ratioP2;P2;SDS_P1;SDS_P2;PMS_P1;PMS_P2;Temp;Humidity;BMP_temperature;BMP_pressure;BME280_temperature;BME280_humidity;BME280_pressure;Samples;Min_cycle;Max_cycle;Signal;HPM_P1;HPM_P2
2023/12/10 00:00:16;;;;;;;16.15;2.25;;;7.60;99.90;;;6.97;100.00;96088.06;5016837;28;20036;-40
2023/12/10 00:02:42;;;;;;;9.55;1.83;;;7.60;99.90;;;7.01;100.00;96104.50;5009823;28;20037;-37
2023/12/10 00:05:08;;;;;;;9.00;1.58;;;7.50;99.90;;;6.88;100.00;96118.13;5013576;28;20045;-38
2023/12/10 00:07:33;;;;;;;12.00;2.33;;;7.50;99.90;;;6.99;100.00;96127.31;5022566;28;20031;-38
2023/12/10 00:09:59;;;;;;;6.93;2.00;;;7.50;99.90;;;6.92;100.00;96142.44;5020314;28;20055;-39
2023/12/10 00:12:25;;;;;;;15.02;2.70;;;7.50;99.90;;;6.97;100.00;96140.50;5021247;28;20503;-37
2023/12/10 00:14:54;;;;;;;18.02;2.30;;;7.50;99.90;;;6.94;100.00;96137.16;5019528;28;20033;-37
2023/12/10 00:17:21;;;;;;;10.52;1.42;;;7.50;99.90;;;7.01;100.00;96147.28;5019403;28;20940;-37
2023/12/10 00:19:47;;;;;;;9.05;1.60;;;7.50;99.90;;;7.00;100.00;96145.59;5019908;28;20128;-39
2023/12/10 00:22:12;;;;;;;18.95;2.75;;;7.50;99.90;;;6.98;100.00;96154.44;5020198;28;20421;-37
2023/12/10 00:24:38;;;;;;;16.73;2.33;;;7.50;99.90;;;7.02;100.00;96153.41;5024453;28;20021;-38
2023/12/10 00:27:04;;;;;;;12.73;2.17;;;7.50;99.90;;;7.06;100.00;96166.31;5017751;28;20874;-39
2023/12/10 00:29:29;;;;;;;12.95;2.33;;;7.50;99.90;;;7.11;100.00;96173.13;5016537;28;20044;-40
2023/12/10 00:31:55;;;;;;;22.00;2.92;;;7.60;99.90;;;7.15;100.00;96185.19;5013474;28;20029;-37
2023/12/10 00:34:21;;;;;;;17.15;3.20;;;7.60;99.90;;;7.19;100.00;96176.25;5018764;28;20056;-37
2023/12/10 00:36:47;;;;;;;15.48;2.45;;;7.70;99.90;;;7.17;100.00;96184.19;5022285;28;20037;-40
2023/12/10 00:39:12;;;;;;;15.45;2.40;;;7.70;99.90;;;7.12;100.00;96190.56;5021279;28;20029;-38
2023/12/10 00:41:38;;;;;;;15.52;2.92;;;7.70;99.90;;;6.98;100.00;96171.03;5020488;28;20390;-38
2023/12/10 00:44:04;;;;;;;16.75;2.67;;;7.70;99.90;;;7.01;100.00;96160.41;5021322;28;20041;-38
2023/12/10 00:46:30;;;;;;;17.40;3.13;;;7.70;99.90;;;7.17;100.00;96191.22;5014415;28;20032;-37
2023/12/10 00:48:55;;;;;;;19.23;2.90;;;7.70;99.90;;;7.16;100.00;96200.00;5021626;28;20060;-38
2023/12/10 00:51:22;;;;;;;19.27;2.90;;;7.70;99.90;;;7.15;100.00;96216.66;5020890;28;20029;-38
2023/12/10 00:53:49;;;;;;;14.13;2.67;;;7.70;99.90;;;7.22;100.00;96218.94;5018954;28;20099;-38
2023/12/10 00:56:15;;;;;;;19.70;2.88;;;7.80;99.90;;;7.17;100.00;96233.16;5019090;28;20033;-37
2023/12/10 00:58:41;;;;;;;13.45;2.13;;;7.70;99.90;;;7.15;100.00;96242.88;5013161;28;20583;-37
2023/12/10 01:01:08;;;;;;;19.10;3.30;;;7.80;99.90;;;7.07;100.00;96244.03;5014355;28;20082;-37
2023/12/10 01:03:35;;;;;;;20.92;3.10;;;7.70;99.90;;;7.12;100.00;96258.72;5021325;28;20025;-37
2023/12/10 01:06:03;;;;;;;19.40;3.00;;;7.70;99.90;;;7.16;100.00;96265.53;5018409;28;20031;-38
2023/12/10 01:08:30;;;;;;;22.83;3.25;;;7.70;99.90;;;7.22;100.00;96279.25;5012626;28;20681;-38
2023/12/10 01:10:57;;;;;;;17.30;3.20;;;7.80;99.90;;;7.24;100.00;96284.44;5019201;28;20381;-39
2023/12/10 01:13:24;;;;;;;22.95;3.08;;;7.80;99.90;;;7.21;100.00;96301.16;5019559;28;20037;-39
2023/12/10 01:15:51;;;;;;;19.48;3.58;;;7.80;99.90;;;7.32;100.00;96305.97;5015631;28;20042;-39
2023/12/10 01:18:17;;;;;;;16.42;2.67;;;7.90;99.90;;;7.38;100.00;96317.97;5013501;28;20116;-38
2023/12/10 01:20:42;;;;;;;20.10;3.58;;;7.90;99.90;;;7.36;100.00;96335.53;5023017;28;20029;-38
2023/12/10 01:23:08;;;;;;;16.85;2.72;;;7.90;99.90;;;7.33;100.00;96330.41;5012435;28;20239;-38
2023/12/10 01:25:36;;;;;;;19.02;2.90;;;7.90;99.90;;;7.24;100.00;96342.97;5014049;28;20056;-38
2023/12/10 01:28:02;;;;;;;26.80;3.55;;;7.90;99.90;;;7.21;100.00;96358.84;5004601;28;20535;-40
2023/12/10 01:30:29;;;;;;;25.00;4.35;;;7.90;99.90;;;7.30;100.00;96369.88;5016512;28;20989;-39
2023/12/10 01:32:58;;;;;;;17.52;2.90;;;7.90;99.90;;;7.25;100.00;96368.28;5011983;28;20041;-38
2023/12/10 01:35:24;;;;;;;16.15;3.30;;;7.90;99.90;;;7.21;100.00;96381.56;5015397;28;20099;-37
2023/12/10 01:37:49;;;;;;;17.25;3.03;;;7.90;99.90;;;7.17;100.00;96383.47;5017609;28;20028;-38
2023/12/10 01:40:15;;;;;;;16.15;2.95;;;7.80;99.90;;;7.21;100.00;96382.44;5015656;28;20039;-38
2023/12/10 01:42:42;;;;;;;22.00;3.78;;;7.80;99.90;;;7.24;100.00;96395.41;5009036;28;20033;-37
2023/12/10 01:45:08;;;;;;;20.40;3.25;;;7.90;99.90;;;7.22;100.00;96389.38;5017082;28;20032;-38
2023/12/10 01:47:39;;;;;;;14.57;3.13;;;7.90;99.90;;;7.29;100.00;96392.63;5021788;28;20032;-38
2023/12/10 01:50:06;;;;;;;18.85;2.97;;;7.90;99.90;;;7.16;100.00;96370.41;4995256;28;20119;-37
2023/12/10 01:52:34;;;;;;;23.70;2.75;;;7.90;99.90;;;7.42;100.00;96406.94;5021104;28;20480;-38
2023/12/10 01:55:05;;;;;;;17.95;2.85;;;8.00;99.90;;;7.44;100.00;96406.88;5019492;28;20042;-39
2023/12/10 01:57:33;;;;;;;19.50;3.13;;;8.10;99.90;;;7.41;100.00;96401.75;5013306;28;20516;-39
2023/12/10 01:59:59;;;;;;;19.52;2.95;;;8.10;99.90;;;7.35;100.00;96409.88;5017826;28;20114;-40
2023/12/10 02:02:26;;;;;;;19.58;3.10;;;8.00;99.90;;;7.30;100.00;96417.91;5013272;28;20064;-39
2023/12/10 02:04:54;;;;;;;18.63;3.25;;;7.90;99.90;;;7.28;100.00;96419.75;5018331;28;20060;-38
2023/12/10 02:07:23;;;;;;;23.55;3.60;;;7.90;99.90;;;7.35;100.00;96423.00;5019064;28;20610;-38
2023/12/10 02:09:50;;;;;;;19.40;3.05;;;8.00;99.90;;;7.38;100.00;96428.97;5019483;28;20017;-37
2023/12/10 02:12:19;;;;;;;15.85;2.70;;;8.00;99.90;;;7.42;100.00;96437.56;5006000;28;20038;-39
2023/12/10 02:14:45;;;;;;;15.45;2.80;;;8.00;99.90;;;7.44;100.00;96433.13;5008741;28;20500;-38
2023/12/10 02:17:10;;;;;;;20.30;2.97;;;8.10;99.90;;;7.48;100.00;96428.59;5009756;28;20167;-39
2023/12/10 02:19:36;;;;;;;20.45;2.88;;;8.10;99.90;;;7.50;100.00;96422.41;5010654;28;20029;-37
2023/12/10 02:22:03;;;;;;;16.05;2.85;;;8.20;99.90;;;7.51;100.00;96431.13;5016713;28;20079;-38
2023/12/10 02:24:44;;;;;;;16.50;3.15;;;8.20;99.90;;;7.47;100.00;96438.25;5017887;28;20028;-38
2023/12/10 02:27:10;;;;;;;19.20;2.85;;;8.20;99.90;;;7.44;100.00;96441.84;5012465;28;20040;-37
2023/12/10 02:29:36;;;;;;;14.15;2.38;;;8.10;99.90;;;7.42;100.00;96441.03;5000791;28;20033;-38
2023/12/10 02:32:02;;;;;;;13.52;2.40;;;8.10;99.90;;;7.35;100.00;96450.06;5015551;28;20053;-38
2023/12/10 02:34:27;;;;;;;18.55;3.50;;;8.00;99.90;;;7.35;100.00;96452.69;5013814;28;20038;-38
2023/12/10 02:36:53;;;;;;;16.08;2.80;;;8.00;99.90;;;7.32;100.00;96452.84;5016971;28;20040;-37
2023/12/10 02:39:19;;;;;;;15.32;2.60;;;7.90;99.90;;;7.22;100.00;96454.94;5017492;28;20040;-38
2023/12/10 02:41:45;;;;;;;16.67;3.03;;;7.90;99.90;;;7.18;100.00;96463.84;5018177;28;20037;-37
2023/12/10 02:44:10;;;;;;;16.25;2.42;;;7.90;99.90;;;7.13;100.00;96488.53;5015932;28;20032;-38
2023/12/10 02:46:36;;;;;;;10.50;2.17;;;7.80;99.90;;;6.98;100.00;96462.00;5016256;28;20029;-38
2023/12/10 02:49:02;;;;;;;9.52;1.40;;;7.70;99.90;;;6.74;100.00;96468.97;5018012;28;20083;-38
2023/12/10 02:51:27;;;;;;;7.43;1.10;;;7.40;99.90;;;6.52;100.00;96474.16;5017618;28;20029;-38
2023/12/10 02:53:53;;;;;;;6.38;1.23;;;7.20;99.90;;;6.33;100.00;96483.56;5021764;28;20366;-38
2023/12/10 02:56:19;;;;;;;7.97;1.30;;;7.10;99.90;;;6.25;100.00;96478.59;5022055;28;20028;-38
2023/12/10 02:58:44;;;;;;;6.68;1.23;;;6.90;99.90;;;6.15;100.00;96496.38;5025702;28;20041;-37
2023/12/10 03:01:12;;;;;;;7.88;1.40;;;6.80;99.90;;;6.06;100.00;96505.38;5019548;28;20091;-38
2023/12/10 03:03:38;;;;;;;9.90;1.40;;;6.70;99.90;;;6.04;100.00;96509.81;5023693;28;20040;-37
2023/12/10 03:06:06;;;;;;;7.07;1.35;;;6.60;99.90;;;5.99;100.00;96516.09;5021773;28;20029;-38
2023/12/10 03:08:32;;;;;;;8.00;1.33;;;6.60;99.90;;;5.80;100.00;96490.50;5003469;28;20326;-37
2023/12/10 03:10:57;;;;;;;4.82;1.20;;;6.60;99.90;;;5.82;100.00;96520.09;5019289;28;20036;-37
2023/12/10 03:13:23;;;;;;;11.07;1.38;;;6.50;99.90;;;5.81;100.00;96518.38;5014407;28;20549;-39
2023/12/10 03:15:49;;;;;;;7.72;1.30;;;6.40;99.90;;;5.71;100.00;96516.97;5018694;28;20280;-37
2023/12/10 03:18:14;;;;;;;12.05;1.63;;;6.40;99.90;;;5.59;100.00;96531.28;5019004;28;20053;-38
2023/12/10 03:20:40;;;;;;;8.18;1.75;;;6.30;99.90;;;5.55;100.00;96525.28;5025418;28;20033;-38
2023/12/10 03:23:05;;;;;;;6.93;1.48;;;6.20;99.90;;;5.52;100.00;96528.00;5020267;28;20033;-38
2023/12/10 03:25:31;;;;;;;9.45;1.45;;;6.20;99.90;;;5.47;100.00;96540.38;5019132;28;20922;-38
2023/12/10 03:27:57;;;;;;;9.73;1.25;;;6.10;99.90;;;5.41;100.00;96553.63;5021627;28;20033;-38
2023/12/10 03:30:22;;;;;;;10.05;1.30;;;6.10;99.90;;;5.50;100.00;96555.09;5008185;28;20159;-38
2023/12/10 03:32:48;;;;;;;6.20;1.70;;;6.10;99.90;;;5.54;100.00;96551.50;5022913;28;20029;-38
2023/12/10 03:35:14;;;;;;;7.43;1.52;;;6.20;99.90;;;5.54;100.00;96544.53;5015595;28;20482;-39
2023/12/10 03:37:39;;;;;;;13.18;1.73;;;6.20;99.90;;;5.59;100.00;96546.13;5021079;28;20056;-38
2023/12/10 03:40:06;;;;;;;13.93;2.10;;;6.30;99.90;;;5.65;100.00;96532.84;5021030;28;20036;-39
2023/12/10 03:42:32;;;;;;;12.60;1.90;;;6.30;99.90;;;5.74;100.00;96553.50;5016933;28;20030;-38
2023/12/10 03:44:58;;;;;;;12.07;1.58;;;6.30;99.90;;;5.80;100.00;96552.47;5001994;28;20037;-38
2023/12/10 03:47:23;;;;;;;8.50;1.70;;;6.40;99.90;;;5.82;100.00;96554.13;5019889;28;20499;-38
2023/12/10 03:49:49;;;;;;;9.80;1.83;;;6.50;99.90;;;5.82;100.00;96564.59;5021178;28;20543;-38
2023/12/10 03:52:15;;;;;;;15.70;1.90;;;6.50;99.90;;;5.86;100.00;96575.81;5011732;28;20044;-38
2023/12/10 03:54:40;;;;;;;14.38;2.58;;;6.50;99.90;;;5.83;100.00;96570.66;5017613;28;20033;-38
2023/12/10 03:57:06;;;;;;;12.75;1.90;;;6.50;99.90;;;5.70;100.00;96564.97;5017519;28;20366;-38
2023/12/10 03:59:32;;;;;;;11.38;1.38;;;6.50;99.90;;;6.03;100.00;96580.53;5015830;28;20509;-38
2023/12/10 04:01:57;;;;;;;15.98;1.83;;;6.60;99.90;;;6.01;100.00;96593.69;5018140;28;20083;-38
2023/12/10 04:04:23;;;;;;;20.35;2.00;;;6.60;99.90;;;5.88;100.00;96613.25;5022592;28;20429;-38
2023/12/10 04:06:49;;;;;;;14.63;2.10;;;6.60;99.90;;;5.79;100.00;96603.06;5018769;28;20041;-38
2023/12/10 04:09:15;;;;;;;12.60;2.05;;;6.50;99.90;;;5.74;100.00;96609.31;5015219;28;20048;-38
2023/12/10 04:11:40;;;;;;;15.32;2.20;;;6.40;99.90;;;5.73;100.00;96604.97;5016944;28;20725;-38
2023/12/10 04:14:10;;;;;;;14.63;2.38;;;6.40;99.90;;;5.69;100.00;96613.81;5017971;28;20021;-38
2023/12/10 04:16:36;;;;;;;13.88;1.92;;;6.40;99.90;;;5.69;100.00;96618.19;5017004;28;20037;-38
2023/12/10 04:19:03;;;;;;;15.68;2.35;;;6.40;99.90;;;5.69;100.00;96613.81;5017996;28;20129;-40
2023/12/10 04:21:29;;;;;;;7.03;1.77;;;6.30;99.90;;;5.63;100.00;96610.53;5018887;28;20457;-40
2023/12/10 04:23:55;;;;;;;15.00;2.13;;;6.30;99.90;;;5.72;100.00;96626.81;5022602;28;20029;-39
2023/12/10 04:26:21;;;;;;;12.32;2.08;;;6.40;99.90;;;5.77;100.00;96625.81;5022034;28;20568;-39
2023/12/10 04:28:47;;;;;;;8.00;1.52;;;6.40;99.90;;;5.80;100.00;96626.56;5020498;28;20113;-38
2023/12/10 04:31:14;;;;;;;10.23;2.05;;;6.50;99.90;;;5.85;100.00;96629.91;5015593;28;20041;-38
2023/12/10 04:33:43;;;;;;;10.73;1.73;;;6.60;99.90;;;5.88;100.00;96628.94;5021389;28;20150;-38
2023/12/10 04:36:09;;;;;;;18.65;2.60;;;6.60;99.90;;;5.88;100.00;96627.19;5021090;28;20033;-38
2023/12/10 04:38:35;;;;;;;11.50;1.98;;;6.60;99.90;;;5.92;100.00;96622.69;5018602;28;20037;-38
2023/12/10 04:41:00;;;;;;;12.52;2.35;;;6.70;99.90;;;5.88;100.00;96614.09;5020695;28;20037;-39
2023/12/10 04:43:26;;;;;;;16.70;2.28;;;6.70;99.90;;;5.98;100.00;96633.03;5014060;28;20044;-38
2023/12/10 04:45:52;;;;;;;9.55;1.65;;;6.70;99.90;;;5.99;100.00;96628.66;5022535;28;20124;-38
2023/12/10 04:48:18;;;;;;;13.50;1.98;;;6.80;99.90;;;6.06;100.00;96632.78;5016186;28;20036;-38
2023/12/10 04:50:43;;;;;;;10.27;1.80;;;6.80;99.90;;;6.06;100.00;96638.88;5023301;28;20056;-39
2023/12/10 04:53:09;;;;;;;10.07;1.75;;;6.80;99.90;;;6.05;100.00;96647.66;5019245;28;20678;-38
2023/12/10 04:55:35;;;;;;;9.90;1.98;;;6.80;99.90;;;6.09;100.00;96641.41;5020213;28;20359;-38
2023/12/10 04:58:01;;;;;;;9.07;1.70;;;6.80;99.90;;;6.08;100.00;96655.41;5021690;28;20094;-38
2023/12/10 05:00:26;;;;;;;10.52;2.40;;;6.80;99.90;;;6.07;100.00;96645.00;5013666;28;20790;-38
2023/12/10 05:02:52;;;;;;;10.35;1.90;;;6.80;99.90;;;6.07;100.00;96658.06;5015536;28;20042;-39
2023/12/10 05:05:18;;;;;;;14.23;2.10;;;6.80;99.90;;;6.13;100.00;96662.25;5017114;28;20319;-40
2023/12/10 05:07:44;;;;;;;10.77;1.88;;;6.90;99.90;;;6.16;100.00;96676.09;5000570;28;20486;-39
2023/12/10 05:10:11;;;;;;;9.00;1.52;;;6.90;99.90;;;6.18;100.00;96673.44;4998678;28;20067;-41
2023/12/10 05:12:36;;;;;;;13.88;2.58;;;6.90;99.90;;;6.23;100.00;96675.00;5012621;28;20136;-40
2023/12/10 05:15:02;;;;;;;16.55;2.15;;;6.90;99.90;;;6.23;100.00;96680.25;5020369;28;20585;-40
2023/12/10 05:17:28;;;;;;;17.25;2.47;;;6.90;99.90;;;6.22;100.00;96681.13;5016902;28;20644;-40
2023/12/10 05:19:54;;;;;;;10.88;1.80;;;6.90;99.90;;;6.23;100.00;96684.63;5000099;28;20033;-38
2023/12/10 05:22:20;;;;;;;16.35;2.20;;;6.90;99.90;;;6.24;100.00;96700.28;5013202;28;20090;-39
2023/12/10 05:24:47;;;;;;;10.88;2.10;;;6.90;99.90;;;6.21;100.00;96708.25;5017386;28;20686;-39
2023/12/10 05:27:13;;;;;;;11.55;1.92;;;6.90;99.90;;;6.22;100.00;96696.00;5013735;28;20037;-39
2023/12/10 05:29:39;;;;;;;12.23;1.95;;;6.90;99.90;;;6.20;100.00;96706.53;5014864;28;20032;-38
2023/12/10 05:32:05;;;;;;;12.50;2.00;;;6.90;99.90;;;6.18;100.00;96700.47;5011780;28;20037;-39
2023/12/10 05:34:31;;;;;;;17.63;2.42;;;6.90;99.90;;;6.17;100.00;96693.50;5013408;28;22765;-39
2023/12/10 05:36:57;;;;;;;10.85;1.73;;;6.90;99.90;;;6.22;100.00;96701.25;5016895;28;20119;-39
2023/12/10 05:39:23;;;;;;;11.38;1.85;;;6.90;99.90;;;6.20;100.00;96709.13;5013640;28;20030;-39
2023/12/10 05:41:49;;;;;;;10.50;1.85;;;6.80;99.90;;;6.16;100.00;96707.53;5016498;28;20029;-38
2023/12/10 05:44:15;;;;;;;10.32;1.98;;;6.80;99.90;;;6.03;100.00;96698.31;5015299;28;20480;-41
2023/12/10 05:46:40;;;;;;;9.02;2.00;;;6.80;99.90;;;6.12;100.00;96713.78;5020255;28;20057;-40
2023/12/10 05:49:06;;;;;;;10.68;1.88;;;6.80;99.90;;;6.06;100.00;96716.56;5017609;28;20029;-39
2023/12/10 05:51:32;;;;;;;13.23;1.88;;;6.70;99.90;;;6.00;100.00;96721.97;5017510;28;20592;-38
2023/12/10 05:53:58;;;;;;;13.50;1.80;;;6.70;99.90;;;5.92;100.00;96730.88;5019836;28;20052;-38
2023/12/10 05:56:23;;;;;;;16.15;1.92;;;6.60;99.90;;;5.93;100.00;96727.34;5017902;28;20029;-38
2023/12/10 05:58:49;;;;;;;9.07;1.83;;;6.60;99.90;;;6.03;100.00;96741.06;5019455;28;20021;-40
2023/12/10 06:01:15;;;;;;;10.20;1.95;;;6.60;99.90;;;6.07;100.00;96757.53;5012923;28;20021;-38
2023/12/10 06:03:40;;;;;;;13.65;2.13;;;6.70;99.90;;;6.08;100.00;96752.28;5020472;28;20456;-39
2023/12/10 06:06:07;;;;;;;14.48;2.13;;;6.70;99.90;;;6.10;100.00;96746.97;5018692;28;21219;-39
2023/12/10 06:08:32;;;;;;;7.03;1.70;;;6.80;99.90;;;6.15;100.00;96757.31;5013259;28;20671;-38
2023/12/10 06:10:58;;;;;;;14.00;1.98;;;6.80;99.90;;;6.18;100.00;96759.84;5015904;28;20021;-38
2023/12/10 06:13:24;;;;;;;20.75;2.25;;;6.80;99.90;;;6.19;100.00;96774.63;5012041;28;20465;-39
2023/12/10 06:15:50;;;;;;;16.17;2.40;;;6.80;99.90;;;6.23;100.00;96777.13;5012759;28;20123;-38
2023/12/10 06:18:15;;;;;;;9.57;2.03;;;6.90;99.90;;;6.22;100.00;96780.63;5018682;28;20279;-39
2023/12/10 06:20:41;;;;;;;7.78;2.28;;;6.90;99.90;;;6.21;100.00;96794.66;5015408;28;20470;-39
2023/12/10 06:23:07;;;;;;;9.07;1.58;;;6.90;99.90;;;6.20;100.00;96792.91;5017690;28;20025;-39
2023/12/10 06:25:33;;;;;;;12.02;1.85;;;6.90;99.90;;;6.23;100.00;96805.09;5020492;28;20025;-38
2023/12/10 06:27:59;;;;;;;10.07;2.28;;;6.90;99.90;;;6.14;100.00;96800.97;5025884;28;20491;-38
2023/12/10 06:30:24;;;;;;;8.55;1.40;;;6.90;99.90;;;6.19;100.00;96806.06;5020001;28;20029;-39
2023/12/10 06:32:50;;;;;;;11.18;1.85;;;6.90;99.90;;;6.20;100.00;96803.41;5021860;28;20029;-38
2023/12/10 06:35:16;;;;;;;8.93;1.95;;;6.90;99.90;;;6.22;100.00;96804.22;5018310;28;20550;-39
2023/12/10 06:37:43;;;;;;;9.95;1.80;;;6.90;99.90;;;6.23;100.00;96826.03;5026046;28;20124;-38
2023/12/10 06:40:10;;;;;;;8.70;1.75;;;6.90;99.90;;;6.17;100.00;96815.72;5025717;28;20033;-40
2023/12/10 06:42:36;;;;;;;9.93;1.75;;;6.90;99.90;;;6.20;100.00;96826.97;5021280;28;24168;-38
2023/12/10 06:45:03;;;;;;;18.88;2.20;;;6.90;99.90;;;6.27;100.00;96830.28;5017456;28;20028;-38
2023/12/10 06:47:29;;;;;;;9.07;1.55;;;6.90;99.90;;;6.25;100.00;96830.31;5022671;28;21080;-39
2023/12/10 06:49:55;;;;;;;5.25;1.48;;;7.00;99.90;;;6.23;100.00;96836.50;5029810;28;20025;-38
2023/12/10 06:52:21;;;;;;;13.80;1.90;;;7.00;99.90;;;6.23;100.00;96834.75;5020360;28;20119;-38
2023/12/10 06:54:47;;;;;;;12.35;1.65;;;7.00;99.90;;;6.23;100.00;96834.75;5026323;28;20026;-38
2023/12/10 06:57:12;;;;;;;7.90;1.40;;;7.00;99.90;;;6.26;100.00;96845.13;5022947;28;20524;-38
2023/12/10 06:59:38;;;;;;;13.90;2.08;;;7.00;99.90;;;6.27;100.00;96859.06;5019279;28;20108;-39
2023/12/10 07:02:04;;;;;;;7.63;1.60;;;7.00;99.90;;;6.29;100.00;96846.78;5018889;28;20025;-38
2023/12/10 07:04:30;;;;;;;10.90;2.03;;;7.00;99.90;;;6.32;100.00;96854.56;5015032;28;20120;-39
2023/12/10 07:06:55;;;;;;;8.07;1.58;;;7.00;99.90;;;6.35;100.00;96846.59;5028136;28;20029;-39
2023/12/10 07:09:21;;;;;;;8.80;1.65;;;7.00;99.90;;;6.36;100.00;96847.47;5020668;28;20459;-39
2023/12/10 07:11:47;;;;;;;17.48;2.10;;;7.10;99.90;;;6.34;100.00;96850.13;5026158;28;20029;-38
2023/12/10 07:14:13;;;;;;;14.13;2.05;;;7.00;99.90;;;6.20;100.00;96845.28;5028676;28;20029;-39
2023/12/10 07:16:38;;;;;;;7.25;1.73;;;7.00;99.90;;;6.20;100.00;96857.53;5020899;28;20040;-36
2023/12/10 07:19:04;;;;;;;11.20;1.88;;;6.90;99.90;;;6.18;100.00;96851.47;5027237;28;20032;-38
2023/12/10 07:21:30;;;;;;;14.90;2.85;;;6.90;99.90;;;6.18;100.00;96857.56;5022914;28;20049;-36
2023/12/10 07:23:55;;;;;;;8.52;1.50;;;6.90;99.90;;;6.22;100.00;96863.56;5029207;28;20038;-38
2023/12/10 07:26:23;;;;;;;9.93;1.98;;;6.90;99.90;;;6.23;100.00;96860.91;5024937;28;20044;-36
2023/12/10 07:28:49;;;;;;;11.27;1.63;;;6.90;99.90;;;6.26;100.00;96863.47;5005027;28;20025;-37
2023/12/10 07:31:15;;;;;;;14.13;2.03;;;6.90;99.90;;;6.18;100.00;96868.03;5019990;28;20025;-37
2023/12/10 07:33:40;;;;;;;11.73;1.85;;;6.80;99.90;;;6.13;100.00;96869.94;5022479;28;20119;-36
2023/12/10 07:36:07;;;;;;;10.63;2.25;;;6.80;99.90;;;6.30;100.00;96882.56;5016369;28;20033;-37
2023/12/10 07:38:32;;;;;;;8.90;2.33;;;7.00;99.90;;;6.27;100.00;96883.50;5019269;28;20034;-39
2023/12/10 07:40:58;;;;;;;11.82;2.00;;;7.00;99.90;;;6.28;100.00;96871.25;5021593;28;20037;-37
2023/12/10 07:43:24;;;;;;;10.88;1.73;;;7.00;99.90;;;6.28;100.00;96880.00;5010952;28;20045;-37
2023/12/10 07:45:50;;;;;;;7.03;1.42;;;7.00;99.90;;;6.25;100.00;96868.75;5007739;28;20034;-38
2023/12/10 07:48:15;;;;;;;9.85;2.00;;;7.00;99.90;;;6.28;100.00;96882.59;5014620;28;20542;-37
2023/12/10 07:50:41;;;;;;;9.18;2.22;;;7.00;99.90;;;6.28;100.00;96873.88;5013835;28;20250;-37
2023/12/10 07:53:07;;;;;;;11.32;1.27;;;7.00;99.90;;;6.28;100.00;96874.75;5019243;28;20025;-38
2023/12/10 07:55:33;;;;;;;8.55;1.80;;;7.00;99.90;;;6.25;100.00;96894.94;5018505;28;20037;-40
2023/12/10 07:57:59;;;;;;;10.63;2.05;;;7.00;99.90;;;6.25;100.00;96885.31;5021347;28;20025;-37
2023/12/10 08:00:24;;;;;;;11.52;1.77;;;7.00;99.90;;;6.28;100.00;96893.09;5015022;28;20452;-37
2023/12/10 08:02:50;;;;;;;9.38;1.52;;;7.00;99.90;;;6.29;100.00;96901.78;5021420;28;20453;-37
2023/12/10 08:05:16;;;;;;;11.25;2.20;;;7.00;99.90;;;6.39;100.00;96900.63;5020713;28;21691;-38
2023/12/10 08:07:42;;;;;;;7.28;1.25;;;7.00;99.90;;;6.37;100.00;96902.44;5022138;28;20029;-39
2023/12/10 08:10:08;;;;;;;7.72;1.50;;;7.10;99.90;;;6.36;100.00;96905.09;5024825;28;20478;-38
2023/12/10 08:12:34;;;;;;;10.27;3.58;;;7.00;99.90;;;6.26;100.00;96910.59;5020796;28;20029;-37
2023/12/10 08:15:00;;;;;;;12.75;2.03;;;7.00;99.90;;;6.28;100.00;96916.66;5019135;28;20420;-38
2023/12/10 08:17:26;;;;;;;11.13;1.67;;;7.00;99.90;;;6.33;100.00;96920.88;5020492;28;20029;-39
2023/12/10 08:19:51;;;;;;;9.60;1.65;;;7.00;99.90;;;6.34;100.00;96925.25;5024676;28;20095;-37
2023/12/10 08:22:17;;;;;;;9.32;1.60;;;7.10;99.90;;;6.43;100.00;96933.69;5017538;28;20735;-40
2023/12/10 08:24:43;;;;;;;9.88;1.77;;;7.10;99.90;;;6.32;100.00;96912.19;5018482;28;20033;-38
2023/12/10 08:27:09;;;;;;;8.27;1.58;;;7.20;99.90;;;6.53;100.00;96925.56;5020742;28;20045;-38
2023/12/10 08:29:35;;;;;;;11.00;1.80;;;7.20;99.90;;;6.60;100.00;96927.09;5020888;28;20036;-39
2023/12/10 08:32:01;;;;;;;12.85;2.13;;;7.30;99.90;;;6.66;100.00;96924.34;5015778;28;20121;-38
2023/12/10 08:34:27;;;;;;;12.32;1.65;;;7.30;99.90;;;6.74;100.00;96929.34;5016310;28;20071;-37
2023/12/10 08:36:53;;;;;;;7.88;1.70;;;7.40;99.90;;;6.75;100.00;96913.56;5020248;28;20569;-37
2023/12/10 08:39:20;;;;;;;11.07;1.67;;;7.50;99.90;;;6.92;100.00;96934.03;5020183;28;20763;-38
2023/12/10 08:41:45;;;;;;;7.22;1.30;;;7.60;99.90;;;7.00;100.00;96939.03;5019028;28;20033;-38
2023/12/10 08:44:11;;;;;;;6.80;1.70;;;7.70;99.90;;;7.02;100.00;96922.38;5017554;28;20065;-37
2023/12/10 08:46:37;;;;;;;9.52;1.65;;;7.70;99.90;;;7.08;100.00;96924.78;5007955;28;20052;-37
2023/12/10 08:49:03;;;;;;;9.77;1.55;;;7.70;99.90;;;7.08;100.00;96919.53;5016332;28;20033;-38
2023/12/10 08:51:28;;;;;;;9.77;1.90;;;7.70;99.90;;;6.99;100.00;96927.69;5019306;28;20425;-39
2023/12/10 08:53:54;;;;;;;5.68;1.50;;;7.70;99.90;;;6.77;100.00;96917.00;5020971;28;20040;-38
2023/12/10 08:56:20;;;;;;;6.50;1.92;;;7.50;99.90;;;6.63;100.00;96916.56;5012684;28;20033;-38
2023/12/10 08:58:46;;;;;;;9.65;1.75;;;7.40;99.90;;;6.46;100.00;96907.41;5019116;28;20033;-39
2023/12/10 09:01:12;;;;;;;9.85;2.22;;;7.30;99.90;;;6.53;100.00;96915.94;5019306;28;20326;-38
2023/12/10 09:03:42;;;;;;;11.05;1.60;;;7.20;99.90;;;6.53;100.00;96931.66;5016164;28;20451;-37
2023/12/10 09:06:08;;;;;;;8.35;1.92;;;7.20;99.90;;;6.48;100.00;96910.84;5013235;28;20062;-38
2023/12/10 09:08:34;;;;;;;8.77;1.25;;;7.20;99.90;;;6.59;100.00;96941.97;5022040;28;20108;-38
2023/12/10 09:11:03;;;;;;;7.65;1.63;;;7.20;99.90;;;6.65;100.00;96936.56;4999849;28;20079;-38
2023/12/10 09:13:33;;;;;;;11.77;1.45;;;7.30;99.90;;;6.82;100.00;96949.19;5008299;28;20757;-38
2023/12/10 09:15:59;;;;;;;10.35;1.88;;;7.50;99.90;;;7.12;100.00;96941.28;5011423;28;20041;-38
2023/12/10 09:18:26;;;;;;;11.60;1.67;;;7.80;99.90;;;7.56;100.00;96956.56;5006772;28;20138;-38
2023/12/10 09:20:52;;;;;;;9.93;1.80;;;8.20;99.90;;;7.83;100.00;96960.91;5018127;28;20413;-38
2023/12/10 09:23:18;;;;;;;8.55;1.90;;;8.50;99.90;;;7.87;100.00;96918.81;5019504;28;20029;-38
2023/12/10 09:25:44;;;;;;;11.18;1.60;;;8.70;99.90;;;8.16;100.00;96946.69;5021800;28;20034;-38
2023/12/10 09:28:11;;;;;;;12.13;1.90;;;8.90;99.90;;;8.38;100.00;96973.06;5019834;28;20036;-38
2023/12/10 09:30:36;;;;;;;12.05;1.80;;;9.00;99.90;;;8.40;100.00;96964.22;5018810;28;20029;-37
2023/12/10 09:33:02;;;;;;;10.10;1.63;;;9.10;99.90;;;8.33;100.00;96975.03;5020069;28;20036;-39
2023/12/10 09:35:28;;;;;;;11.98;2.33;;;9.10;99.90;;;8.18;100.00;96979.88;5017858;28;20037;-37
2023/12/10 09:37:54;;;;;;;9.32;1.70;;;9.00;99.90;;;8.05;100.00;96982.97;5012268;28;20091;-38
2023/12/10 09:40:20;;;;;;;7.95;1.52;;;8.80;99.90;;;7.99;100.00;96963.88;5014727;28;20036;-37
2023/12/10 09:42:46;;;;;;;10.23;1.75;;;8.80;99.90;;;7.90;100.00;96960.72;5020833;28;20033;-37
2023/12/10 09:45:11;;;;;;;8.23;1.30;;;8.80;99.90;;;8.01;100.00;96974.34;5019743;28;20025;-38
2023/12/10 09:47:40;;;;;;;12.23;2.08;;;8.80;99.90;;;8.02;100.00;96983.91;5006747;28;20032;-39
2023/12/10 09:50:06;;;;;;;12.27;1.90;;;8.80;99.90;;;8.07;100.00;96991.66;5020011;28;20026;-38
2023/12/10 09:52:32;;;;;;;11.63;1.30;;;8.90;99.90;;;8.14;100.00;96983.50;5009370;28;20647;-39
2023/12/10 09:54:58;;;;;;;5.20;1.38;;;8.90;99.90;;;8.31;100.00;96990.84;5005333;28;26951;-38
2023/12/10 09:57:26;;;;;;;7.32;1.63;;;9.00;99.90;;;8.46;100.00;97001.75;5012087;28;20123;-39
2023/12/10 09:59:52;;;;;;;10.65;1.40;;;9.10;99.90;;;8.43;100.00;96981.69;5007701;28;20494;-38
2023/12/10 10:02:18;;;;;;;8.27;1.38;;;9.30;99.90;;;8.52;100.00;97006.78;5012714;28;20048;-38
2023/12/10 10:04:44;;;;;;;7.70;1.20;;;9.30;99.90;;;8.39;100.00;97001.06;5014905;28;20037;-39
2023/12/10 10:07:10;;;;;;;7.13;1.80;;;9.30;99.90;;;8.44;100.00;97009.69;5013072;28;20103;-39
2023/12/10 10:09:36;;;;;;;5.70;1.33;;;9.30;99.90;;;8.38;100.00;97010.72;5021817;28;20055;-38
2023/12/10 10:12:03;;;;;;;6.00;1.33;;;9.20;99.90;;;8.36;100.00;97007.31;5009467;28;20045;-38
2023/12/10 10:14:29;;;;;;;10.63;1.63;;;9.20;99.90;;;8.39;100.00;97003.69;5013391;28;20086;-38
2023/12/10 10:16:54;;;;;;;10.85;1.33;;;9.10;99.90;;;8.40;100.00;97011.53;5012251;28;20033;-38